Time;durP1;ratioP1;P1;durP2;ratioP2;P2;SDS_P1;SDS_P2;PMS_P1;PMS_P2;Temp;Humidity;BMP_temperature;BMP_pressure;BME280_temperature;BME280_humidity;BME280_pressure;Samples;Min_cycle;Max_cycle;Signal;HPM_P1;HPM_P2
2024/01/24 00:00:58;;;;;;;14.40;4.53;;;10.30;99.90;;;;;;5099764;27;20089;-70
2024/01/24 00:03:25;;;;;;;16.70;5.20;;;10.00;99.90;;;;;;5115254;27;20039;-69
2024/01/24 00:05:52;;;;;;;16.95;6.30;;;10.30;99.90;;;;;;5118072;27;20046;-69
2024/01/24 00:08:19;;;;;;;16.27;5.00;;;10.00;99.90;;;;;;5137547;27;20050;-70
2024/01/24 00:10:47;;;;;;;17.73;5.55;;;10.40;99.90;;;;;;5136647;27;20054;-69
2024/01/24 00:13:14;;;;;;;15.15;5.45;;;10.30;99.90;;;;;;5155753;27;20053;-70
2024/01/24 00:15:41;;;;;;;20.40;5.22;;;10.10;99.90;;;;;;5137099;27;20486;-70
2024/01/24 00:18:08;;;;;;;30.17;6.65;;;10.50;99.90;;;;;;5136903;27;20062;-69
2024/01/24 00:20:34;;;;;;;18.98;5.32;;;10.00;99.90;;;;;;5101152;27;20096;-69
2024/01/24 00:23:01;;;;;;;14.27;4.43;;;10.20;99.90;;;;;;5099344;27;20514;-69
2024/01/24 00:25:28;;;;;;;16.95;6.18;;;10.30;99.90;;;;;;5114966;27;20047;-70
2024/01/24 00:27:56;;;;;;;23.10;5.32;;;10.20;99.90;;;;;;5099358;27;20456;-69
2024/01/24 00:30:24;;;;;;;15.75;5.00;;;10.30;99.90;;;;;;5114945;27;20112;-69
2024/01/24 00:32:50;;;;;;;25.88;5.47;;;10.20;99.90;;;;;;5099093;27;20048;-69
2024/01/24 00:35:17;;;;;;;15.38;5.55;;;10.10;99.90;;;;;;5100142;27;20054;-69
2024/01/24 00:37:45;;;;;;;17.33;5.40;;;10.20;99.90;;;;;;5097909;27;20052;-70
2024/01/24 00:40:12;;;;;;;22.20;6.10;;;9.90;99.90;;;;;;5099553;27;20490;-70
2024/01/24 00:42:42;;;;;;;23.27;6.40;;;10.30;99.90;;;;;;5097734;27;20048;-70
2024/01/24 00:45:11;;;;;;;19.17;7.13;;;9.90;99.90;;;;;;5097990;27;20043;-71
2024/01/24 00:47:39;;;;;;;21.33;6.40;;;9.90;99.90;;;;;;5099191;27;20517;-71
2024/01/24 00:50:07;;;;;;;20.52;5.38;;;10.00;99.90;;;;;;5132949;27;20095;-68
2024/01/24 00:52:34;;;;;;;16.73;4.70;;;10.10;99.90;;;;;;5136082;27;20051;-69
2024/01/24 00:55:01;;;;;;;15.63;5.47;;;10.00;99.90;;;;;;5136316;27;20054;-69
2024/01/24 00:57:28;;;;;;;16.13;5.57;;;10.10;99.90;;;;;;5136118;27;20055;-69
2024/01/24 00:59:55;;;;;;;21.25;5.40;;;10.40;99.90;;;;;;5136013;27;20050;-69
2024/01/24 01:02:23;;;;;;;18.02;5.70;;;10.00;99.90;;;;;;5136126;27;20050;-69
2024/01/24 01:04:50;;;;;;;16.08;5.38;;;10.30;99.90;;;;;;5136526;27;20050;-69
2024/01/24 01:07:17;;;;;;;15.25;5.35;;;10.00;99.90;;;;;;5135505;27;20043;-69
2024/01/24 01:09:44;;;;;;;20.88;5.45;;;10.50;99.90;;;;;;5154596;27;20042;-69
2024/01/24 01:12:10;;;;;;;18.85;5.22;;;10.30;99.90;;;;;;5136197;27;20058;-69
2024/01/24 01:14:38;;;;;;;18.48;5.15;;;10.30;99.90;;;;;;5135445;27;20074;-69
2024/01/24 01:17:05;;;;;;;17.25;5.35;;;10.00;99.90;;;;;;5136315;27;20077;-70
2024/01/24 01:19:33;;;;;;;13.93;4.80;;;10.40;99.90;;;;;;5135980;27;20116;-70
2024/01/24 01:22:00;;;;;;;11.55;4.88;;;10.40;99.90;;;;;;5135928;27;20057;-70
2024/01/24 01:24:27;;;;;;;22.27;5.22;;;10.00;99.90;;;;;;5115237;27;20043;-70
2024/01/24 01:26:54;;;;;;;19.42;6.30;;;10.00;99.90;;;;;;5097317;27;20491;-69
2024/01/24 01:29:21;;;;;;;17.10;6.10;;;10.50;99.90;;;;;;5116460;27;20123;-70
2024/01/24 01:31:48;;;;;;;14.45;5.00;;;10.40;99.90;;;;;;5098256;27;20044;-70
2024/01/24 01:34:14;;;;;;;16.95;5.68;;;10.10;99.90;;;;;;5115930;27;20054;-70
2024/01/24 01:36:43;;;;;;;15.88;5.22;;;10.50;99.90;;;;;;5099081;27;20089;-69
2024/01/24 01:39:10;;;;;;;19.83;5.85;;;10.00;99.90;;;;;;5098677;27;20070;-69
2024/01/24 01:41:37;;;;;;;13.82;4.95;;;10.30;99.90;;;;;;5096855;27;20048;-70
2024/01/24 01:44:04;;;;;;;15.23;4.55;;;10.40;99.90;;;;;;5098538;27;20479;-70
2024/01/24 01:46:32;;;;;;;15.68;4.65;;;10.10;99.90;;;;;;5096714;27;20048;-69
2024/01/24 01:49:00;;;;;;;19.55;5.25;;;10.40;99.90;;;;;;5114643;27;20043;-69
2024/01/24 01:51:28;;;;;;;14.63;4.28;;;10.40;99.90;;;;;;5115792;27;20047;-70
2024/01/24 01:53:57;;;;;;;11.57;3.58;;;10.40;99.90;;;;;;5097262;27;20061;-71
2024/01/24 01:56:25;;;;;;;12.40;4.47;;;10.60;99.90;;;;;;5096540;27;20047;-70
2024/01/24 01:58:53;;;;;;;11.43;3.60;;;10.50;99.90;;;;;;5115976;27;20444;-70
2024/01/24 02:01:20;;;;;;;12.13;4.20;;;10.40;99.90;;;;;;5097357;27;20089;-69
2024/01/24 02:03:47;;;;;;;10.68;4.00;;;10.60;99.90;;;;;;5107029;27;20092;-70
2024/01/24 02:06:14;;;;;;;10.35;3.55;;;10.50;99.90;;;;;;5097248;27;20048;-70
2024/01/24 02:08:41;;;;;;;14.30;3.90;;;10.50;99.90;;;;;;5098502;27;20100;-70
2024/01/24 02:11:11;;;;;;;9.70;3.08;;;10.50;99.90;;;;;;5096431;27;20055;-70
2024/01/24 02:13:38;;;;;;;11.77;3.75;;;10.40;99.90;;;;;;5097768;27;20043;-71
2024/01/24 02:16:05;;;;;;;12.05;3.38;;;10.70;99.90;;;;;;5095856;27;20056;-71
2024/01/24 02:18:32;;;;;;;8.40;3.13;;;10.70;99.90;;;;;;5097257;27;20069;-71
2024/01/24 02:21:00;;;;;;;8.50;3.67;;;10.60;99.90;;;;;;5097735;27;20499;-70
2024/01/24 02:23:27;;;;;;;9.27;3.58;;;10.50;99.90;;;;;;5096082;27;20512;-71
2024/01/24 02:25:57;;;;;;;11.40;3.10;;;10.50;99.90;;;;;;5097730;27;20487;-72
2024/01/24 02:28:24;;;;;;;9.20;3.58;;;10.50;99.90;;;;;;5098165;27;20052;-71
2024/01/24 02:30:51;;;;;;;18.95;3.55;;;10.50;99.90;;;;;;5096261;27;20059;-72
2024/01/24 02:33:18;;;;;;;8.88;3.42;;;10.60;99.90;;;;;;5097588;27;20043;-70
2024/01/24 02:35:45;;;;;;;9.48;3.22;;;10.50;99.90;;;;;;5096365;27;20056;-71
2024/01/24 02:38:12;;;;;;;7.53;3.05;;;10.60;99.90;;;;;;5097361;27;20108;-71
2024/01/24 02:40:38;;;;;;;12.65;3.42;;;10.70;99.90;;;;;;5096614;27;20054;-71
2024/01/24 02:43:07;;;;;;;8.70;3.25;;;10.60;99.90;;;;;;5097367;27;20100;-71
2024/01/24 02:45:34;;;;;;;9.57;3.38;;;10.50;99.90;;;;;;5112694;27;20486;-72
2024/01/24 02:48:01;;;;;;;10.70;3.67;;;10.50;99.90;;;;;;5125857;27;21577;-70
2024/01/24 02:50:28;;;;;;;14.40;3.78;;;10.60;99.90;;;;;;5097170;27;20048;-70
2024/01/24 02:52:55;;;;;;;9.45;3.35;;;10.60;99.90;;;;;;5095130;27;20048;-70
2024/01/24 02:55:21;;;;;;;18.10;3.92;;;10.50;99.90;;;;;;5095774;28;20051;-70
2024/01/24 02:57:48;;;;;;;12.90;4.28;;;10.60;99.90;;;;;;5126228;27;20046;-71
2024/01/24 03:00:17;;;;;;;11.88;3.72;;;10.50;99.90;;;;;;5130313;27;20055;-71
2024/01/24 03:02:44;;;;;;;12.20;3.55;;;10.40;99.90;;;;;;5130683;28;20051;-70
2024/01/24 03:05:11;;;;;;;13.38;4.07;;;10.40;99.90;;;;;;5129955;28;20047;-71
2024/01/24 03:07:40;;;;;;;11.15;3.88;;;10.30;99.90;;;;;;5130770;27;20038;-71
2024/01/24 03:10:08;;;;;;;11.05;3.42;;;10.30;99.90;;;;;;5127159;28;20071;-71
2024/01/24 03:12:35;;;;;;;18.00;5.28;;;10.30;99.90;;;;;;5130270;28;20047;-71
2024/01/24 03:15:02;;;;;;;15.77;3.60;;;10.20;99.90;;;;;;5130905;28;20084;-71
2024/01/24 03:17:30;;;;;;;14.68;4.07;;;10.30;99.90;;;;;;5130754;28;20055;-71
2024/01/24 03:19:57;;;;;;;16.95;4.28;;;10.10;99.90;;;;;;5130561;28;20058;-71
2024/01/24 03:22:24;;;;;;;15.63;5.00;;;10.00;99.90;;;;;;5126370;28;20047;-70
2024/01/24 03:24:51;;;;;;;17.48;5.25;;;10.10;99.90;;;;;;5132274;28;20490;-70
2024/01/24 03:27:18;;;;;;;22.48;5.32;;;10.10;99.90;;;;;;5125949;28;20055;-70
2024/01/24 03:29:45;;;;;;;24.65;5.95;;;10.00;99.90;;;;;;5130690;28;20046;-70
2024/01/24 03:32:12;;;;;;;12.27;4.88;;;10.10;99.90;;;;;;5130679;28;20130;-71
2024/01/24 03:34:41;;;;;;;15.95;5.05;;;10.10;99.90;;;;;;5129936;28;20047;-70
2024/01/24 03:37:07;;;;;;;18.45;5.78;;;10.00;99.90;;;;;;5130599;28;20096;-70
2024/01/24 03:39:35;;;;;;;19.60;5.00;;;9.90;99.90;;;;;;5130589;28;20058;-71
2024/01/24 03:42:06;;;;;;;24.17;5.80;;;10.00;99.90;;;;;;5130074;28;20051;-70
2024/01/24 03:44:33;;;;;;;16.83;5.85;;;10.00;99.90;;;;;;5109906;28;20123;-71
2024/01/24 03:46:59;;;;;;;18.30;6.15;;;10.10;99.90;;;;;;5095129;28;20055;-70
2024/01/24 03:49:26;;;;;;;18.65;5.78;;;10.10;99.90;;;;;;5094690;28;20047;-71
2024/01/24 03:51:55;;;;;;;21.35;5.93;;;10.20;99.90;;;;;;5095394;28;20101;-70
2024/01/24 03:54:22;;;;;;;19.15;5.90;;;10.20;99.90;;;;;;5094396;28;20048;-70
2024/01/24 03:56:49;;;;;;;21.15;4.93;;;10.30;99.90;;;;;;5092911;28;20047;-71
2024/01/24 03:59:16;;;;;;;17.17;5.22;;;10.30;99.90;;;;;;5095093;28;20052;-72
2024/01/24 04:01:43;;;;;;;26.30;6.05;;;10.30;99.90;;;;;;5094948;28;20056;-71
2024/01/24 04:04:10;;;;;;;20.17;4.80;;;10.20;99.90;;;;;;5094956;28;20047;-70
2024/01/24 04:06:37;;;;;;;21.63;5.90;;;10.40;99.90;;;;;;5095284;28;20051;-71
2024/01/24 04:09:05;;;;;;;14.15;5.22;;;10.50;99.90;;;;;;5094422;28;20494;-71
2024/01/24 04:11:32;;;;;;;15.98;4.72;;;10.50;99.90;;;;;;5095083;28;20098;-70
2024/01/24 04:14:01;;;;;;;22.80;6.32;;;10.50;99.90;;;;;;5094897;28;20098;-70
2024/01/24 04:16:28;;;;;;;25.73;6.05;;;10.60;99.90;;;;;;5094799;28;20406;-70
2024/01/24 04:18:55;;;;;;;24.75;6.22;;;10.50;99.90;;;;;;5097097;27;20055;-70
2024/01/24 04:21:22;;;;;;;18.85;6.10;;;10.40;99.90;;;;;;5099144;27;20059;-70
2024/01/24 04:23:49;;;;;;;24.45;5.55;;;10.30;99.90;;;;;;5123500;27;20054;-69
2024/01/24 04:26:21;;;;;;;21.00;5.55;;;10.20;99.90;;;;;;5131227;27;20054;-70
2024/01/24 04:28:48;;;;;;;23.42;6.43;;;10.30;99.90;;;;;;5103743;27;20047;-68
2024/01/24 04:31:15;;;;;;;21.70;5.95;;;10.20;99.90;;;;;;5130850;27;20143;-68
2024/01/24 04:33:42;;;;;;;20.35;7.00;;;10.20;99.90;;;;;;5131388;27;20051;-68
2024/01/24 04:36:10;;;;;;;24.55;7.30;;;10.30;99.90;;;;;;5130281;27;20043;-68
2024/01/24 04:38:38;;;;;;;23.55;6.75;;;10.30;99.90;;;;;;5129000;27;20050;-69
2024/01/24 04:41:05;;;;;;;20.85;6.85;;;10.20;99.90;;;;;;5129874;27;20163;-69
2024/01/24 04:43:35;;;;;;;19.85;6.38;;;10.30;99.90;;;;;;5111043;27;20047;-68
2024/01/24 04:46:02;;;;;;;19.83;6.18;;;10.20;99.90;;;;;;5125060;27;20047;-69
2024/01/24 04:48:29;;;;;;;26.98;6.25;;;10.20;99.90;;;;;;5111353;27;20316;-68
2024/01/24 04:50:56;;;;;;;24.13;6.40;;;10.20;99.90;;;;;;5124134;27;20456;-68
2024/01/24 04:53:23;;;;;;;31.65;8.10;;;10.20;99.90;;;;;;5113998;27;20050;-69
2024/01/24 04:55:50;;;;;;;25.05;6.15;;;10.30;99.90;;;;;;5110682;27;20051;-68
2024/01/24 04:58:17;;;;;;;23.20;7.03;;;10.30;99.90;;;;;;5109461;28;20131;-68
2024/01/24 05:00:48;;;;;;;21.10;5.72;;;10.20;99.90;;;;;;5112082;28;20051;-69
2024/01/24 05:03:15;;;;;;;25.40;7.55;;;10.20;99.90;;;;;;5105167;28;20048;-68
2024/01/24 05:05:42;;;;;;;21.10;6.57;;;10.20;99.90;;;;;;5110658;28;20483;-69
2024/01/24 05:08:09;;;;;;;22.63;5.82;;;10.20;99.90;;;;;;5105273;28;20051;-68
2024/01/24 05:10:35;;;;;;;26.55;7.45;;;10.20;99.90;;;;;;5110725;28;20096;-67
2024/01/24 05:13:02;;;;;;;25.27;8.18;;;10.20;99.90;;;;;;5111155;28;20043;-69
2024/01/24 05:15:29;;;;;;;38.55;8.30;;;10.20;99.90;;;;;;5110633;28;20043;-69
2024/01/24 05:17:57;;;;;;;32.47;7.88;;;10.10;99.90;;;;;;5106870;28;20434;-68
2024/01/24 05:20:24;;;;;;;25.17;7.47;;;10.20;99.90;;;;;;5109492;28;20140;-69
2024/01/24 05:22:51;;;;;;;30.80;8.35;;;10.20;99.90;;;;;;5109313;28;20048;-69
2024/01/24 05:25:18;;;;;;;34.35;8.00;;;10.20;99.90;;;;;;5110023;28;20973;-68
2024/01/24 05:27:45;;;;;;;30.45;6.95;;;10.30;99.90;;;;;;5108395;28;20059;-68
2024/01/24 05:30:13;;;;;;;35.13;8.63;;;10.30;99.90;;;;;;5109252;28;20055;-68
2024/01/24 05:32:40;;;;;;;28.92;7.15;;;10.20;99.90;;;;;;5108730;28;20044;-69
2024/01/24 05:35:09;;;;;;;24.20;8.07;;;10.20;99.90;;;;;;5108011;28;20051;-69
2024/01/24 05:37:36;;;;;;;30.98;8.40;;;10.20;99.90;;;;;;5101835;28;20443;-69
2024/01/24 05:40:03;;;;;;;27.65;7.70;;;10.20;99.90;;;;;;5101393;28;20386;-69
2024/01/24 05:42:30;;;;;;;34.03;8.48;;;10.10;99.90;;;;;;5110146;28;20062;-70
2024/01/24 05:44:57;;;;;;;29.45;6.72;;;10.10;99.90;;;;;;5109705;28;20036;-69
2024/01/24 05:47:24;;;;;;;29.65;7.63;;;10.10;99.90;;;;;;5109118;28;20050;-68
2024/01/24 05:49:50;;;;;;;34.83;8.43;;;10.10;99.90;;;;;;5110446;28;20100;-69
2024/01/24 05:52:18;;;;;;;43.05;8.52;;;10.00;99.90;;;;;;5104690;28;20048;-68
2024/01/24 05:54:45;;;;;;;34.40;8.90;;;10.00;99.90;;;;;;5114144;27;20054;-68
2024/01/24 05:57:12;;;;;;;28.08;8.32;;;9.90;99.90;;;;;;5119512;27;20054;-68
2024/01/24 05:59:39;;;;;;;24.58;7.60;;;9.90;99.90;;;;;;5114976;27;20055;-69
2024/01/24 06:02:06;;;;;;;26.42;8.23;;;9.90;99.90;;;;;;5111741;27;20047;-69
2024/01/24 06:04:32;;;;;;;29.58;8.65;;;9.90;99.90;;;;;;5105552;27;20099;-69
2024/01/24 06:07:00;;;;;;;31.95;8.32;;;9.90;99.90;;;;;;5114846;27;20047;-69
2024/01/24 06:09:28;;;;;;;27.80;7.88;;;9.90;99.90;;;;;;5113916;27;20076;-69
2024/01/24 06:11:55;;;;;;;28.42;7.55;;;10.00;99.90;;;;;;5114589;27;20059;-68
2024/01/24 06:14:22;;;;;;;39.13;8.52;;;10.00;99.90;;;;;;5111571;27;20444;-67
2024/01/24 06:16:49;;;;;;;32.65;7.50;;;9.90;99.90;;;;;;5111171;27;20046;-69
2024/01/24 06:19:16;;;;;;;29.17;9.00;;;9.80;99.90;;;;;;5109675;27;20043;-68
2024/01/24 06:21:43;;;;;;;26.38;8.02;;;9.90;99.90;;;;;;5106274;27;20055;-69
2024/01/24 06:24:10;;;;;;;23.00;7.07;;;9.90;99.90;;;;;;5103543;27;20096;-68
2024/01/24 06:26:39;;;;;;;31.58;8.13;;;9.80;99.90;;;;;;5108573;27;20043;-69
2024/01/24 06:29:09;;;;;;;29.35;7.07;;;9.80;99.90;;;;;;5123002;27;20054;-69
2024/01/24 06:31:36;;;;;;;36.08;7.65;;;9.80;99.90;;;;;;5112942;27;20494;-68
2024/01/24 06:34:03;;;;;;;33.13;9.07;;;10.00;99.90;;;;;;5105429;27;20726;-69
2024/01/24 06:36:29;;;;;;;30.48;8.73;;;9.80;99.90;;;;;;5105077;27;20491;-68
2024/01/24 06:38:56;;;;;;;35.00;8.65;;;9.90;99.90;;;;;;5095655;27;20483;-68
2024/01/24 06:41:23;;;;;;;35.70;9.80;;;9.60;99.90;;;;;;5107108;27;20482;-69
2024/01/24 06:43:51;;;;;;;34.00;8.52;;;9.60;99.90;;;;;;5123902;27;20044;-69
2024/01/24 06:46:18;;;;;;;28.40;8.25;;;9.60;99.90;;;;;;5118575;27;20062;-68
2024/01/24 06:48:45;;;;;;;31.75;9.10;;;9.50;99.90;;;;;;5095639;27;20762;-68
2024/01/24 06:51:13;;;;;;;35.58;7.78;;;9.60;99.90;;;;;;5097892;27;20088;-69
2024/01/24 06:53:39;;;;;;;27.63;7.60;;;9.60;99.90;;;;;;5113253;27;20043;-69
2024/01/24 06:56:08;;;;;;;29.95;6.88;;;9.50;99.90;;;;;;5095140;27;20100;-69
2024/01/24 06:58:36;;;;;;;26.75;7.55;;;9.50;99.90;;;;;;5111768;28;20472;-69
2024/01/24 07:01:05;;;;;;;27.85;8.65;;;9.40;99.90;;;;;;5109466;28;20089;-69
2024/01/24 07:03:32;;;;;;;34.53;8.70;;;9.40;99.90;;;;;;5111779;28;20099;-69
2024/01/24 07:05:59;;;;;;;39.85;9.35;;;9.40;99.90;;;;;;5110392;28;20505;-69
2024/01/24 07:08:25;;;;;;;43.65;7.82;;;9.40;99.90;;;;;;5131618;27;20425;-67
2024/01/24 07:10:52;;;;;;;41.58;7.95;;;9.40;99.90;;;;;;5108148;28;20099;-68
2024/01/24 07:13:20;;;;;;;26.33;7.18;;;9.50;99.90;;;;;;5102490;28;20051;-68
2024/01/24 07:15:47;;;;;;;26.20;7.03;;;9.40;99.90;;;;;;5097479;27;20070;-68
2024/01/24 07:18:15;;;;;;;27.33;7.45;;;9.40;99.90;;;;;;5112527;28;20092;-69
2024/01/24 07:20:43;;;;;;;32.80;8.65;;;9.40;99.90;;;;;;5093930;27;20435;-68
2024/01/24 07:23:10;;;;;;;35.25;7.75;;;9.50;99.90;;;;;;5098644;27;20047;-68
2024/01/24 07:25:36;;;;;;;29.10;7.85;;;9.40;99.90;;;;;;5094854;27;20574;-68
2024/01/24 07:28:04;;;;;;;30.05;7.50;;;9.40;99.90;;;;;;5096864;27;20388;-69
2024/01/24 07:30:31;;;;;;;25.23;6.75;;;9.30;99.90;;;;;;5095541;27;20051;-68
2024/01/24 07:32:57;;;;;;;34.17;8.13;;;9.40;99.90;;;;;;5095970;27;20491;-68
2024/01/24 07:35:26;;;;;;;23.63;7.15;;;9.30;99.90;;;;;;5114576;28;20432;-70
2024/01/24 07:37:52;;;;;;;27.35;8.50;;;9.30;99.90;;;;;;5095692;27;20044;-68
2024/01/24 07:40:19;;;;;;;37.03;8.13;;;9.30;99.90;;;;;;5096291;27;20088;-69
2024/01/24 07:42:46;;;;;;;29.42;7.47;;;9.20;99.90;;;;;;5095767;27;20055;-67
2024/01/24 07:45:14;;;;;;;27.35;7.55;;;9.30;99.90;;;;;;5096083;27;20043;-68
2024/01/24 07:47:41;;;;;;;33.97;8.35;;;9.40;99.90;;;;;;5110595;28;20050;-68
2024/01/24 07:50:08;;;;;;;32.78;8.50;;;9.40;99.90;;;;;;5096115;27;20047;-68
2024/01/24 07:52:36;;;;;;;35.20;8.55;;;9.30;99.90;;;;;;5097114;27;20055;-68
2024/01/24 07:55:03;;;;;;;29.02;7.55;;;9.30;99.90;;;;;;5098853;27;20052;-68
2024/01/24 07:57:30;;;;;;;34.40;9.00;;;9.30;99.90;;;;;;5100207;27;20135;-69
2024/01/24 07:59:57;;;;;;;30.17;7.05;;;9.20;99.90;;;;;;5099171;27;20475;-68
2024/01/24 08:02:24;;;;;;;30.50;8.05;;;9.20;99.90;;;;;;5098966;27;20043;-69
2024/01/24 08:04:51;;;;;;;22.45;6.65;;;9.20;99.90;;;;;;5115835;27;20490;-68
2024/01/24 08:07:18;;;;;;;28.38;7.63;;;9.30;99.90;;;;;;5099341;27;20051;-68
2024/01/24 08:09:47;;;;;;;30.52;8.60;;;9.30;99.90;;;;;;5116459;27;20050;-69
2024/01/24 08:12:13;;;;;;;31.35;8.13;;;9.40;99.90;;;;;;5115550;27;20050;-69
2024/01/24 08:14:41;;;;;;;32.75;8.18;;;9.30;99.90;;;;;;5117615;27;20139;-68
2024/01/24 08:17:10;;;;;;;28.55;8.25;;;9.40;99.90;;;;;;5117905;27;20047;-69
2024/01/24 08:19:38;;;;;;;34.17;8.55;;;9.50;99.90;;;;;;5100739;27;20052;-67
2024/01/24 08:22:05;;;;;;;31.60;8.02;;;9.50;99.90;;;;;;5098667;27;20406;-68
2024/01/24 08:24:32;;;;;;;19.85;7.20;;;9.60;99.90;;;;;;5100274;27;20051;-67
2024/01/24 08:27:00;;;;;;;29.40;8.88;;;9.80;99.90;;;;;;5098290;27;20039;-68
2024/01/24 08:29:27;;;;;;;33.00;9.90;;;9.60;99.90;;;;;;5115960;27;20100;-68
2024/01/24 08:31:54;;;;;;;28.50;8.60;;;9.60;99.90;;;;;;5100003;27;20048;-67
2024/01/24 08:34:22;;;;;;;32.78;8.45;;;9.60;99.90;;;;;;5098455;27;20048;-68
2024/01/24 08:36:48;;;;;;;26.90;8.30;;;9.70;99.90;;;;;;5099058;27;20536;-68
2024/01/24 08:39:15;;;;;;;30.58;7.80;;;9.70;99.90;;;;;;5098348;27;20411;-67
2024/01/24 08:41:42;;;;;;;29.58;7.50;;;9.90;99.90;;;;;;5098965;27;20048;-68
2024/01/24 08:44:10;;;;;;;25.67;8.00;;;9.80;99.90;;;;;;5114353;27;20046;-70
2024/01/24 08:46:37;;;;;;;37.15;8.45;;;9.90;99.90;;;;;;5098545;27;20498;-68
2024/01/24 08:49:04;;;;;;;29.77;7.20;;;10.00;99.90;;;;;;5099800;27;20055;-68
2024/01/24 08:51:31;;;;;;;33.83;8.48;;;10.30;99.90;;;;;;5097624;27;20051;-68
2024/01/24 08:53:59;;;;;;;30.25;8.95;;;10.60;99.90;;;;;;5099614;27;20047;-68
2024/01/24 08:56:26;;;;;;;33.22;8.05;;;10.70;99.90;;;;;;5115434;27;20096;-69
2024/01/24 08:58:53;;;;;;;30.88;7.80;;;10.90;99.90;;;;;;5098220;27;20117;-68
2024/01/24 09:01:22;;;;;;;32.15;8.32;;;11.10;99.90;;;;;;5099390;27;20448;-68
2024/01/24 09:03:49;;;;;;;23.10;8.43;;;11.30;99.90;;;;;;5116608;27;20096;-68
2024/01/24 09:06:16;;;;;;;31.95;9.18;;;11.40;99.90;;;;;;5097621;27;20079;-68
2024/01/24 09:08:44;;;;;;;27.73;6.82;;;11.60;99.90;;;;;;5099150;27;20051;-68
2024/01/24 09:11:11;;;;;;;32.13;8.65;;;11.60;99.90;;;;;;5097279;27;20055;-68
2024/01/24 09:13:38;;;;;;;22.00;6.68;;;11.60;99.90;;;;;;5098744;27;20056;-68
2024/01/24 09:16:05;;;;;;;27.60;8.00;;;11.60;99.90;;;;;;5099440;27;20096;-68
2024/01/24 09:18:33;;;;;;;28.92;8.73;;;11.60;99.90;;;;;;5097151;27;20039;-68
2024/01/24 09:21:01;;;;;;;27.77;7.43;;;12.00;99.90;;;;;;5098497;27;20047;-69
2024/01/24 09:23:28;;;;;;;25.55;6.95;;;12.40;99.90;;;;;;5114608;27;20077;-68
2024/01/24 09:25:55;;;;;;;32.15;8.30;;;12.90;99.90;;;;;;5097422;27;20035;-69
2024/01/24 09:28:22;;;;;;;28.70;8.60;;;12.80;99.90;;;;;;5099344;27;20048;-69
2024/01/24 09:30:49;;;;;;;22.48;7.75;;;13.00;99.90;;;;;;5097468;27;20384;-68
2024/01/24 09:33:16;;;;;;;23.80;7.55;;;13.20;99.90;;;;;;5097899;27;20057;-69
2024/01/24 09:35:46;;;;;;;27.05;8.35;;;13.30;99.90;;;;;;5114446;27;20039;-68
2024/01/24 09:38:13;;;;;;;23.38;8.52;;;13.10;99.90;;;;;;5097483;27;20093;-69
2024/01/24 09:40:40;;;;;;;29.83;7.53;;;12.90;99.90;;;;;;5097341;27;20085;-68
2024/01/24 09:43:09;;;;;;;24.80;7.85;;;13.30;99.90;;;;;;5113663;27;20062;-69
2024/01/24 09:45:39;;;;;;;30.98;7.35;;;13.40;99.90;;;;;;5097388;27;20039;-69
2024/01/24 09:48:08;;;;;;;27.73;7.05;;;13.30;99.90;;;;;;5097131;27;20164;-70
2024/01/24 09:50:35;;;;;;;27.23;7.55;;;13.10;99.90;;;;;;5098366;27;20047;-69
2024/01/24 09:53:05;;;;;;;32.45;8.20;;;13.10;99.90;;;;;;5097086;27;20493;-69
2024/01/24 09:55:33;;;;;;;24.15;7.22;;;13.50;99.90;;;;;;5096053;27;20045;-68
2024/01/24 09:58:00;;;;;;;25.45;7.95;;;13.30;99.90;;;;;;5096768;28;20557;-69
2024/01/24 10:00:27;;;;;;;23.15;6.68;;;13.20;99.90;;;;;;5113703;28;20043;-69
2024/01/24 10:02:56;;;;;;;37.65;8.50;;;13.70;99.90;;;;;;5096771;28;20044;-69
2024/01/24 10:05:26;;;;;;;22.75;6.95;;;13.80;99.90;;;;;;5113978;27;20469;-69
2024/01/24 10:07:54;;;;;;;22.67;7.65;;;14.10;99.90;;;;;;5126997;27;20075;-68
2024/01/24 10:10:22;;;;;;;26.50;8.00;;;13.80;99.90;;;;;;5131509;27;20104;-68
2024/01/24 10:12:49;;;;;;;19.25;7.30;;;13.70;99.90;;;;;;5131830;27;20402;-68
2024/01/24 10:15:16;;;;;;;23.17;6.97;;;13.90;99.90;;;;;;5130736;27;20043;-69
2024/01/24 10:17:44;;;;;;;20.38;7.22;;;14.00;99.90;;;;;;5130865;27;20517;-68
2024/01/24 10:20:12;;;;;;;26.38;7.30;;;14.00;99.90;;;;;;5131569;27;20092;-68
2024/01/24 10:22:39;;;;;;;21.33;7.50;;;13.80;99.90;;;;;;5131005;27;20086;-68
2024/01/24 10:25:09;;;;;;;28.00;8.00;;;13.70;99.90;;;;;;5131593;27;20047;-69
2024/01/24 10:27:38;;;;;;;22.17;7.28;;;13.40;99.90;;;;;;5127409;27;20043;-69
2024/01/24 10:30:10;;;;;;;25.85;6.53;;;13.40;99.90;;;;;;5131168;27;20406;-69
2024/01/24 10:32:37;;;;;;;27.63;7.32;;;13.60;99.90;;;;;;5131137;27;20433;-68
2024/01/24 10:35:05;;;;;;;24.73;6.95;;;14.20;99.90;;;;;;5131168;27;20083;-68
2024/01/24 10:37:32;;;;;;;22.70;6.88;;;14.80;99.90;;;;;;5130630;27;20043;-69
2024/01/24 10:40:04;;;;;;;19.05;5.57;;;14.80;99.90;;;;;;5131201;27;20444;-68
2024/01/24 10:42:35;;;;;;;24.63;7.45;;;14.50;99.90;;;;;;5127767;27;20050;-68
2024/01/24 10:45:05;;;;;;;23.00;6.60;;;13.70;99.90;;;;;;5131178;27;20406;-68
2024/01/24 10:47:32;;;;;;;23.83;7.05;;;12.80;99.90;;;;;;5130711;27;20490;-68
2024/01/24 10:50:03;;;;;;;26.25;7.28;;;12.30;99.90;;;;;;5130539;27;20054;-68
2024/01/24 10:52:31;;;;;;;30.20;7.30;;;11.80;99.90;;;;;;5128024;27;20138;-67
2024/01/24 10:55:03;;;;;;;26.50;6.80;;;11.60;99.90;;;;;;5133277;27;20089;-68
2024/01/24 10:57:31;;;;;;;27.20;7.75;;;11.50;99.90;;;;;;5133293;27;20042;-68
2024/01/24 10:59:58;;;;;;;31.77;7.18;;;11.50;99.90;;;;;;5125081;27;20060;-67
2024/01/24 11:02:27;;;;;;;21.65;6.57;;;12.30;99.90;;;;;;5113858;27;20047;-67
2024/01/24 11:04:56;;;;;;;25.17;6.85;;;12.90;99.90;;;;;;5095713;27;20043;-67
2024/01/24 11:07:30;;;;;;;25.27;8.23;;;13.40;99.90;;;;;;5096716;27;20388;-69
2024/01/24 11:10:12;;;;;;;32.80;7.68;;;13.50;99.90;;;;;;5113661;28;20444;-68
2024/01/24 11:12:39;;;;;;;28.20;7.40;;;13.70;99.90;;;;;;5114379;28;20054;-69
2024/01/24 11:15:08;;;;;;;28.80;7.57;;;13.10;99.90;;;;;;5096591;27;20107;-70
2024/01/24 11:17:39;;;;;;;19.38;6.93;;;12.80;99.90;;;;;;5096840;27;20047;-68
2024/01/24 11:20:07;;;;;;;22.23;7.30;;;12.50;99.90;;;;;;5097698;27;20079;-68
2024/01/24 11:22:35;;;;;;;32.70;7.47;;;12.10;99.90;;;;;;5096156;27;20090;-68
2024/01/24 11:25:04;;;;;;;28.25;7.95;;;11.90;99.90;;;;;;5096471;27;20398;-68
2024/01/24 11:27:34;;;;;;;27.88;7.55;;;11.90;99.90;;;;;;5098765;27;20047;-68
2024/01/24 11:30:15;;;;;;;26.83;7.55;;;11.90;99.90;;;;;;5099754;27;20052;-68
2024/01/24 11:33:02;;;;;;;23.02;7.00;;;11.70;99.90;;;;;;5100937;27;20133;-68
2024/01/24 11:35:33;;;;;;;21.83;7.15;;;11.50;99.90;;;;;;5101825;27;20051;-68
2024/01/24 11:38:02;;;;;;;25.38;8.10;;;11.20;99.90;;;;;;5099773;27;20049;-70
2024/01/24 11:40:28;;;;;;;20.98;7.00;;;11.20;99.90;;;;;;5099659;27;20138;-68
2024/01/24 11:42:56;;;;;;;31.38;7.82;;;11.20;99.90;;;;;;5101139;27;20044;-68
2024/01/24 11:45:25;;;;;;;30.52;7.32;;;11.00;99.90;;;;;;5117384;27;20043;-68
2024/01/24 11:47:52;;;;;;;23.73;7.18;;;11.00;99.90;;;;;;5099522;27;20398;-68
2024/01/24 11:50:21;;;;;;;27.40;7.03;;;11.00;99.90;;;;;;5101168;27;20452;-68
2024/01/24 11:52:50;;;;;;;34.67;9.02;;;11.10;99.90;;;;;;5099082;27;20036;-68
2024/01/24 11:55:17;;;;;;;25.80;7.18;;;10.90;99.90;;;;;;5117158;27;20128;-69
2024/01/24 11:57:44;;;;;;;26.80;7.75;;;10.90;99.90;;;;;;5100759;27;20047;-68
2024/01/24 12:00:15;;;;;;;27.20;8.63;;;10.90;99.90;;;;;;5099173;27;20052;-68
2024/01/24 12:02:42;;;;;;;23.75;6.90;;;10.90;99.90;;;;;;5100386;27;20079;-68
2024/01/24 12:05:10;;;;;;;22.35;6.93;;;11.00;99.90;;;;;;5115797;27;20051;-69
2024/01/24 12:07:39;;;;;;;32.47;8.32;;;11.00;99.90;;;;;;5098838;27;20097;-69
2024/01/24 12:10:09;;;;;;;27.38;7.53;;;10.90;99.90;;;;;;5100108;27;20587;-69
2024/01/24 12:12:37;;;;;;;24.50;7.43;;;11.20;99.90;;;;;;5116122;27;20050;-69
2024/01/24 12:15:04;;;;;;;30.15;7.68;;;11.10;99.90;;;;;;5098509;27;20040;-68
2024/01/24 12:17:34;;;;;;;23.52;6.95;;;10.90;99.90;;;;;;5099699;27;20043;-69
2024/01/24 12:20:03;;;;;;;26.10;7.22;;;10.90;99.90;;;;;;5117887;27;20563;-68
2024/01/24 12:22:30;;;;;;;27.60;6.85;;;10.80;99.90;;;;;;5117272;27;20046;-68
2024/01/24 12:25:02;;;;;;;24.85;6.18;;;10.70;99.90;;;;;;5117774;27;20486;-69
2024/01/24 12:27:29;;;;;;;22.50;7.47;;;10.90;99.90;;;;;;5099828;27;20122;-68
2024/01/24 12:29:56;;;;;;;26.23;6.50;;;11.40;99.90;;;;;;5114783;27;20147;-68
2024/01/24 12:32:23;;;;;;;26.60;6.88;;;12.00;99.90;;;;;;5099286;27;20119;-69
2024/01/24 12:34:51;;;;;;;24.08;6.45;;;12.10;99.90;;;;;;5099603;27;20096;-68
2024/01/24 12:37:21;;;;;;;24.88;7.50;;;12.00;99.90;;;;;;5097604;27;20093;-69
2024/01/24 12:39:51;;;;;;;;;;;12.30;99.90;;;;;;5115787;27;20082;-69
2024/01/24 12:42:19;;;;;;;25.47;7.13;;;12.80;99.90;;;;;;5098950;27;19947;-69